Gujrat Weather



Gujrat's Current Weather

Temprature 20o haze

haze

Rain: 0 %

Min Temprature20o
Max Temprature20o
Humidity45
Wind Speed2.6 m/h
Sun Rise06:38:28
Sun Set17:56:07
Current Time: 23-Feb-2019 16:00:54
Lat/Lon: 32.57, 74.07




Gujrat's Geo Location




Gujrat's Weather Forecast

Time Overall Temp Min Temp Max Temp Humidity Wind Speed Rain
23-Feb-2019 (Sat)
17:00:00 clear sky 19.340 18.249 19.340 73 1.36 m/h 0 %
20:00:00 clear sky 13.600 12.784 13.600 70 1.32 m/h 0 %
23:00:00 clear sky 10.860 10.315 10.860 78 1.22 m/h 0 %
24-Feb-2019 (Sun)
02:00:00 clear sky 9.230 8.960 9.230 84 1.21 m/h 0 %
05:00:00 clear sky 7.917 7.917 7.917 84 1.06 m/h 0 %
08:00:00 clear sky 9.228 9.228 9.228 85 0.61 m/h 0 %
11:00:00 clear sky 16.299 16.299 16.299 96 2.06 m/h 0 %
14:00:00 clear sky 19.006 19.006 19.006 88 1.62 m/h 0 %
17:00:00 few clouds 18.321 18.321 18.321 72 1.05 m/h 0 %
20:00:00 few clouds 12.993 12.993 12.993 72 0.66 m/h 0 %
23:00:00 scattered clouds 10.736 10.736 10.736 80 0.51 m/h 0 %
25-Feb-2019 (Mon)
02:00:00 scattered clouds 9.880 9.880 9.880 84 1.22 m/h 0 %
05:00:00 broken clouds 9.552 9.552 9.552 88 1.06 m/h 0 %
08:00:00 overcast clouds 10.220 10.220 10.220 86 0.97 m/h 0 %
11:00:00 broken clouds 14.072 14.072 14.072 91 2.61 m/h 0 %
14:00:00 broken clouds 15.648 15.648 15.648 86 2.47 m/h 0 %
17:00:00 scattered clouds 14.362 14.362 14.362 80 2.36 m/h 0 %
20:00:00 clear sky 10.798 10.798 10.798 87 3.11 m/h 0 %
23:00:00 light rain 9.742 9.742 9.742 94 4.11 m/h 192 %
26-Feb-2019 (Tue)
02:00:00 light rain 10.151 10.151 10.151 97 3.86 m/h 154 %
05:00:00 light rain 9.972 9.972 9.972 97 3.41 m/h 5 %
08:00:00 light rain 10.582 10.582 10.582 100 2.52 m/h 21 %
11:00:00 light rain 13.117 13.117 13.117 100 2.07 m/h 6 %
14:00:00 light rain 13.496 13.496 13.496 100 3.56 m/h 16 %
17:00:00 light rain 12.889 12.889 12.889 97 2.76 m/h 16 %
20:00:00 light rain 11.511 11.511 11.511 96 1.47 m/h 4 %
23:00:00 light rain 10.723 10.723 10.723 99 1.27 m/h 1 %
27-Feb-2019 (Wed)
02:00:00 light rain 10.156 10.156 10.156 100 1.46 m/h 93 %
05:00:00 light rain 8.894 8.894 8.894 100 1.35 m/h 197 %
08:00:00 few clouds 8.765 8.765 8.765 99 1.97 m/h 0 %
11:00:00 light rain 12.495 12.495 12.495 100 2.11 m/h 1 %
14:00:00 broken clouds 14.161 14.161 14.161 100 2.1 m/h 0 %
17:00:00 scattered clouds 13.148 13.148 13.148 93 4.31 m/h 0 %
20:00:00 light rain 10.842 10.842 10.842 92 2.57 m/h 2 %
23:00:00 few clouds 8.766 8.766 8.766 94 1.37 m/h 0 %
28-Feb-2019 (Thu)
02:00:00 scattered clouds 8.416 8.416 8.416 92 3.06 m/h 0 %
05:00:00 broken clouds 7.538 7.538 7.538 91 1.31 m/h 0 %
08:00:00 broken clouds 8.665 8.665 8.665 90 1.51 m/h 0 %
11:00:00 overcast clouds 11.797 11.797 11.797 96 1.96 m/h 0 %
14:00:00 broken clouds 14.004 14.004 14.004 90 1.87 m/h 0 %

Famous Cities (60)